Rp Zug — HE7351 — position and weather

sailwx.info

Track history (hours):
 
Tides and Currents Weather Stations Pressure Air Temp Water Temp Dewpoint Dewpoint Depression Visibility Wind Speed Wind Dir Waves Ship Positions

Rp Zug

Last reported at 2017-Nov-19 14:54 UTC. Time now 2017-Nov-19 15:39 UTC.
Position N 50°49' E 006°60'.

Length 110 m; draft 1.5 m.

Type: Tanker. MMSI: 269057351.

Date/timePositionNaut miles runAvg speedWind from/ knotsBaromVisibWave heightAir tempDewpointWater temp
2017-Nov-19 14:54N 50°49' E 006°60'0 0.0
2017-Nov-19 14:30N 50°49' E 006°60'0 0.0
2017-Nov-19 13:45N 50°49' E 006°60'0 0.0
2017-Nov-19 13:24N 50°49' E 006°60'0 0.0
2017-Nov-19 13:00N 50°49' E 006°60'0 0.0
2017-Nov-19 12:30N 50°49' E 006°60'0 0.0
2017-Nov-19 08:02N 50°49' E 006°60'0 0.0
2017-Nov-19 07:51N 50°49' E 006°60'0 0.0
2017-Nov-19 07:15N 50°49' E 006°60'1 0.4
2017-Nov-19 04:41N 50°50' E 006°59'0 1.7
2017-Nov-19 04:25N 50°50' E 006°59'2 4.6
2017-Nov-19 03:59N 50°52' E 007°01'2 4.2
2017-Nov-19 03:29N 50°54' E 007°03'2 4.5
2017-Nov-19 03:00N 50°54' E 006°59'3 5.3
2017-Nov-19 02:30N 50°56' E 006°58'2 5.0
2017-Nov-19 02:00N 50°59' E 006°60'8 4.4
2017-Nov-19 00:06N 51°05' E 006°52'0 4.8
2017-Nov-19 00:00N 51°06' E 006°52'2 3.9
2017-Nov-18 23:30N 51°08' E 006°51'2 4.5
2017-Nov-18 23:00N 51°10' E 006°51'2 4.3
2017-Nov-18 22:30N 51°09' E 006°48'2 4.7
2017-Nov-18 22:00N 51°11' E 006°47'2 4.4
2017-Nov-18 21:30N 51°11' E 006°44'2 4.5
2017-Nov-18 21:00N 51°14' E 006°44'1 2.9
2017-Nov-18 20:30N 51°14' E 006°46'2 4.8
2017-Nov-18 20:00N 51°16' E 006°43'2 3.9
2017-Nov-18 19:29N 51°18' E 006°43'2 4.4
2017-Nov-18 18:57N 51°20' E 006°43'2 5.3
2017-Nov-18 18:30N 51°21' E 006°39'2 3.8
2017-Nov-18 18:00N 51°22' E 006°42'2 4.9
2017-Nov-18 17:30N 51°24' E 006°45'3 5.3
2017-Nov-18 17:00N 51°26' E 006°43'2 4.2
2017-Nov-18 16:30N 51°28' E 006°42'2 3.2
2017-Nov-18 16:00N 51°30' E 006°43'2 4.1
2017-Nov-18 15:30N 51°32' E 006°41'3 5.0
2017-Nov-18 15:00N 51°34' E 006°41'2 4.7
2017-Nov-18 14:29N 51°34' E 006°37'2 4.8
2017-Nov-18 14:00N 51°36' E 006°36'3 5.1
2017-Nov-18 13:30N 51°39' E 006°36'2 4.9
2017-Nov-18 13:00N 51°39' E 006°33'3 5.4
2017-Nov-18 12:30N 51°40' E 006°28'6 4.6
2017-Nov-18 11:11N 51°45' E 006°23'1 6.1
2017-Nov-18 10:57N 51°45' E 006°21'4 5.6
2017-Nov-18 10:12N 51°49' E 006°17'1 6.0
2017-Nov-18 10:00N 51°50' E 006°15'3 5.7
2017-Nov-18 09:30N 51°50' E 006°11'3 5.8
2017-Nov-18 09:00N 51°51' E 006°06'2 4.5
2017-Nov-18 08:30N 51°52' E 006°03'0 0.9
2017-Nov-18 08:00N 51°52' E 006°03'0 0.5
2017-Nov-18 07:30N 51°52' E 006°02'3 5.1
2017-Nov-18 07:00N 51°51' E 005°58'3 5.8
2017-Nov-18 06:30N 51°52' E 005°54'2 4.8
2017-Nov-18 05:59N 51°52' E 005°50'3 6.6
2017-Nov-18 05:30N 51°53' E 005°45'3 6.8
2017-Nov-18 05:00N 51°54' E 005°40'4 6.8
2017-Nov-18 04:29N 51°54' E 005°34'3 6.6
2017-Nov-18 04:00N 51°53' E 005°29'3 6.0
2017-Nov-18 03:29N 51°51' E 005°25'3 6.7
2017-Nov-18 03:00N 51°49' E 005°22'3 5.4
2017-Nov-18 02:30N 51°49' E 005°18'3 6.6
2017-Nov-18 02:00N 51°49' E 005°13'3 6.5
2017-Nov-18 01:30N 51°49' E 005°07'3 6.1
2017-Nov-18 01:00N 51°49' E 005°03'4 7.3
2017-Nov-18 00:30N 51°50' E 004°57'4 7.5
2017-Nov-18 00:00N 51°49' E 004°51'4 7.4
2017-Nov-17 23:30N 51°49' E 004°45'3 6.2
2017-Nov-17 23:00N 51°51' E 004°40'4 7.7
2017-Nov-17 22:30N 51°54' E 004°36'4 7.0
2017-Nov-17 22:00N 51°55' E 004°31'3 6.3
2017-Nov-17 21:31N 51°54' E 004°26'3 4.6
2017-Nov-17 20:57N 51°53' E 004°22'0 0.0
2017-Nov-17 20:24N 51°53' E 004°22'0 0.0
2017-Nov-17 20:00N 51°53' E 004°22'0 0.0
2017-Nov-17 19:30N 51°53' E 004°22'0 0.0
2017-Nov-17 19:00N 51°53' E 004°22'0 0.0
2017-Nov-17 18:30N 51°53' E 004°22'0 0.0
2017-Nov-17 18:00N 51°53' E 004°22'0 0.0
2017-Nov-17 17:27N 51°53' E 004°22'0 0.0
2017-Nov-17 17:00N 51°53' E 004°22'0 0.0
2017-Nov-17 16:24N 51°53' E 004°22'0 0.0
2017-Nov-17 16:00N 51°53' E 004°22'0 0.0
2017-Nov-17 15:30N 51°53' E 004°22'0 0.0
2017-Nov-17 15:00N 51°53' E 004°22'0 0.0
2017-Nov-17 14:27N 51°53' E 004°22'0 0.0
2017-Nov-17 13:54N 51°53' E 004°22'0 0.0
2017-Nov-17 13:30N 51°53' E 004°22'0 0.0
2017-Nov-17 13:01N 51°53' E 004°22'0 0.2
2017-Nov-17 12:31N 51°53' E 004°22'0 0.2
2017-Nov-17 11:56N 51°53' E 004°22'0 0.0
2017-Nov-17 11:23N 51°53' E 004°22'0 0.0
2017-Nov-17 10:56N 51°53' E 004°22'0 0.0
2017-Nov-17 10:23N 51°53' E 004°22'0 0.0
2017-Nov-17 09:59N 51°53' E 004°22'0 0.0
2017-Nov-17 09:23N 51°53' E 004°22'0 0.0
2017-Nov-17 08:50N 51°53' E 004°22'0 0.0
2017-Nov-17 08:29N 51°53' E 004°22'0 0.0
2017-Nov-17 07:59N 51°53' E 004°22'0 0.0
2017-Nov-17 07:29N 51°53' E 004°22'0 0.0
2017-Nov-17 06:53N 51°53' E 004°22'0 0.0
2017-Nov-17 06:29N 51°53' E 004°22'0 0.0
2017-Nov-17 05:59N 51°53' E 004°22'0 0.0
2017-Nov-17 05:29N 51°53' E 004°22'0 0.0
2017-Nov-17 04:59N 51°53' E 004°22'0 0.0
2017-Nov-17 04:20N 51°53' E 004°22'0 0.0
2017-Nov-17 03:59N 51°53' E 004°22'0 0.0
2017-Nov-17 03:29N 51°53' E 004°22'0 0.0
2017-Nov-17 02:59N 51°53' E 004°22'0 0.0
2017-Nov-17 02:29N 51°53' E 004°22'0 0.0
2017-Nov-17 01:59N 51°53' E 004°22'0 0.0
2017-Nov-17 01:29N 51°53' E 004°22'0 0.0
2017-Nov-17 00:59N 51°53' E 004°22'0 0.0
2017-Nov-17 00:29N 51°53' E 004°22'0 0.0
2017-Nov-16 23:59N 51°53' E 004°22'0 0.0
2017-Nov-16 23:29N 51°53' E 004°22'0 0.0
2017-Nov-16 22:59N 51°53' E 004°22'0 0.0
2017-Nov-16 22:29N 51°53' E 004°22'0 0.0
2017-Nov-16 21:53N 51°53' E 004°22'0 0.0
2017-Nov-16 21:29N 51°53' E 004°22'0 0.0
2017-Nov-16 20:59N 51°53' E 004°22'0 0.0
2017-Nov-16 20:29N 51°53' E 004°22'0 0.0
2017-Nov-16 19:56N 51°53' E 004°22'0 0.0
2017-Nov-16 19:29N 51°53' E 004°22'0 0.0
2017-Nov-16 18:59N 51°53' E 004°22'0 0.0
2017-Nov-16 18:26N 51°53' E 004°22'0 0.0
2017-Nov-16 17:59N 51°53' E 004°22'0 0.0
2017-Nov-16 17:29N 51°53' E 004°22'0 0.0
2017-Nov-16 16:59N 51°53' E 004°22'0 0.0
2017-Nov-16 16:29N 51°53' E 004°22'0 0.0
2017-Nov-16 15:59N 51°53' E 004°22'0 0.0
2017-Nov-16 15:23N 51°53' E 004°22'0 0.0
2017-Nov-16 14:59N 51°53' E 004°22'0 0.0
2017-Nov-16 14:29N 51°53' E 004°22'0 0.0
2017-Nov-16 13:59N 51°53' E 004°22'0 0.0
2017-Nov-16 13:29N 51°53' E 004°22'0 0.0
2017-Nov-16 12:59N 51°53' E 004°22'0 0.0
2017-Nov-16 12:29N 51°53' E 004°22'0 0.0
2017-Nov-16 11:59N 51°53' E 004°22'0 0.0
2017-Nov-16 11:29N 51°53' E 004°22'0 0.0
2017-Nov-16 10:59N 51°53' E 004°22'0 0.0
2017-Nov-16 10:29N 51°53' E 004°22'0 0.0
2017-Nov-16 09:59N 51°53' E 004°22'0 0.0
2017-Nov-16 09:23N 51°53' E 004°22'0 0.0
2017-Nov-16 08:59N 51°53' E 004°22'0 0.0
2017-Nov-16 08:29N 51°53' E 004°22'0 0.0
2017-Nov-16 07:59N 51°53' E 004°22'0 0.0
2017-Nov-16 07:29N 51°53' E 004°22'0 0.0
2017-Nov-16 06:59N 51°53' E 004°22'0 0.0
2017-Nov-16 06:29N 51°53' E 004°22'0 0.0
2017-Nov-16 05:59N 51°53' E 004°22'0 0.0
2017-Nov-16 05:29N 51°53' E 004°22'0 0.0
2017-Nov-16 04:59N 51°53' E 004°22'0 0.0
2017-Nov-16 04:29N 51°53' E 004°22'0 0.0
2017-Nov-16 03:59N 51°53' E 004°22'0 0.0
2017-Nov-16 03:29N 51°53' E 004°22'0 0.0
2017-Nov-16 02:59N 51°53' E 004°22'0 0.0
2017-Nov-16 02:29N 51°53' E 004°22'0 0.0
2017-Nov-16 01:56N 51°53' E 004°22'0 0.0
2017-Nov-16 01:29N 51°53' E 004°22'0 0.0
2017-Nov-16 00:59N 51°53' E 004°22'0 0.0
2017-Nov-16 00:29N 51°53' E 004°22'0 0.0
2017-Nov-15 23:59N 51°53' E 004°22'0 0.0
2017-Nov-15 23:26N 51°53' E 004°22'0 0.0
2017-Nov-15 22:59N 51°53' E 004°22'0 0.0
2017-Nov-15 22:29N 51°53' E 004°22'0 0.0
2017-Nov-15 21:59N 51°53' E 004°22'0 0.0
2017-Nov-15 21:29N 51°53' E 004°22'0 0.0
2017-Nov-15 20:59N 51°53' E 004°22'0 0.0
2017-Nov-15 20:29N 51°53' E 004°22'0 0.0
2017-Nov-15 19:59N 51°53' E 004°22'0 0.0
2017-Nov-15 19:29N 51°53' E 004°22'0 0.0
2017-Nov-15 18:56N 51°53' E 004°22'0 0.0
2017-Nov-15 18:29N 51°53' E 004°22'0 0.0
2017-Nov-15 17:59N 51°53' E 004°22'0 0.0
2017-Nov-15 17:29N 51°53' E 004°22'0 0.0
2017-Nov-15 16:59N 51°53' E 004°22'0 0.0
2017-Nov-15 16:29N 51°53' E 004°22'0 0.0
2017-Nov-15 15:59N 51°53' E 004°22'0 0.0
2017-Nov-15 15:23N 51°53' E 004°22'0 0.0
2017-Nov-15 14:59N 51°53' E 004°22'0 0.0
2017-Nov-15 14:26N 51°53' E 004°22'0 0.0
2017-Nov-15 13:59N 51°53' E 004°22'0 0.0
2017-Nov-15 13:29N 51°53' E 004°22'0 0.0
2017-Nov-15 12:59N 51°53' E 004°22'0 0.0
2017-Nov-15 12:29N 51°53' E 004°22'0 0.0
2017-Nov-15 11:56N 51°53' E 004°22'0 0.0
2017-Nov-15 11:29N 51°53' E 004°22'0 0.0
2017-Nov-15 10:59N 51°53' E 004°22'0 0.0
2017-Nov-15 10:29N 51°53' E 004°22'0 0.0
2017-Nov-15 09:47N 51°53' E 004°22'0 0.0
2017-Nov-15 09:29N 51°53' E 004°22'0 0.0
2017-Nov-15 08:59N 51°53' E 004°22'0 0.0
2017-Nov-15 08:29N 51°53' E 004°22'0 0.0
2017-Nov-15 07:59N 51°53' E 004°22'0 0.0
2017-Nov-15 07:30N 51°53' E 004°22'3 6.0
2017-Nov-15 07:00N 51°54' E 004°27'4 8.2
2017-Nov-15 06:30N 51°54' E 004°33'5 9.2
2017-Nov-15 05:59N 51°51' E 004°39'0 0.0
2017-Nov-15 05:29N 51°51' E 004°39'0 0.0
2017-Nov-15 04:59N 51°51' E 004°39'0 0.0
2017-Nov-15 04:29N 51°51' E 004°39'0 0.0
2017-Nov-15 03:59N 51°51' E 004°39'0 0.0
2017-Nov-15 03:29N 51°51' E 004°39'0 0.0
2017-Nov-15 02:59N 51°51' E 004°39'0 0.0
2017-Nov-15 02:26N 51°51' E 004°39'0 0.0
2017-Nov-15 01:59N 51°51' E 004°39'0 0.0
2017-Nov-15 01:29N 51°51' E 004°39'0 0.0
2017-Nov-15 00:56N 51°51' E 004°39'0 0.0
2017-Nov-15 00:29N 51°51' E 004°39'0 0.0
2017-Nov-14 23:59N 51°51' E 004°39'0 0.0
2017-Nov-14 23:29N 51°51' E 004°39'0 0.0
2017-Nov-14 22:59N 51°51' E 004°39'0 0.0
2017-Nov-14 22:29N 51°51' E 004°39'0 0.0
2017-Nov-14 21:59N 51°51' E 004°39'0 0.0
2017-Nov-14 21:29N 51°51' E 004°39'0 0.0
2017-Nov-14 20:59N 51°51' E 004°39'0 0.0
2017-Nov-14 20:29N 51°51' E 004°39'0 0.0
2017-Nov-14 19:59N 51°51' E 004°39'0 0.0
2017-Nov-14 19:29N 51°51' E 004°39'0 0.0
2017-Nov-14 18:59N 51°51' E 004°39'0 0.0
2017-Nov-14 18:29N 51°51' E 004°39'0 0.0
2017-Nov-14 17:59N 51°51' E 004°39'0 0.0
2017-Nov-14 17:29N 51°51' E 004°39'0 0.0
2017-Nov-14 16:59N 51°51' E 004°39'0 0.0
2017-Nov-14 16:30N 51°51' E 004°39'0 0.0
2017-Nov-14 16:00N 51°51' E 004°39'0 0.0
2017-Nov-14 15:30N 51°51' E 004°39'3 5.1
2017-Nov-14 15:00N 51°53' E 004°37'3 5.2
2017-Nov-14 14:30N 51°51' E 004°39'2 3.3
2017-Nov-14 14:00N 51°50' E 004°40'5 9.6
2017-Nov-14 13:31N 51°49' E 004°48'5 9.9
2017-Nov-14 13:01N 51°50' E 004°56'5 9.7
2017-Nov-14 12:31N 51°49' E 005°04'610.2
2017-Nov-14 11:58N 51°49' E 005°13'5 9.9
2017-Nov-14 11:30N 51°48' E 005°20'710.1
2017-Nov-14 10:51N 51°53' E 005°27'611.3
2017-Nov-14 10:17N 51°54' E 005°38'411.2
2017-Nov-14 09:56N 51°53' E 005°44'611.0
2017-Nov-14 09:25N 51°51' E 005°52'3 8.4
2017-Nov-14 09:01N 51°51' E 005°58'4 8.7
2017-Nov-14 08:31N 51°51' E 006°05'611.1
2017-Nov-14 07:58N 51°50' E 006°14'11 9.7
2017-Nov-14 06:49N 51°42' E 006°28'310.2
2017-Nov-14 06:31N 51°40' E 006°31'4 7.5
2017-Nov-14 06:01N 51°37' E 006°35'4 7.7
2017-Nov-14 05:29N 51°35' E 006°40'5 9.7
2017-Nov-14 05:00N 51°30' E 006°43'3 7.1
2017-Nov-14 04:31N 51°27' E 006°43'5 8.9
2017-Nov-14 04:00N 51°22' E 006°42'3 6.5
2017-Nov-14 03:28N 51°19' E 006°44'4 8.8
2017-Nov-14 03:00N 51°15' E 006°45'3 5.8
2017-Nov-14 02:31N 51°12' E 006°44'4 7.5
2017-Nov-14 02:01N 51°09' E 006°47'3 5.2
2017-Nov-14 01:30N 51°08' E 006°51'8 8.5
2017-Nov-14 00:30N 51°01' E 006°58'4 8.0
2017-Nov-14 00:00N 50°57' E 006°58'5 9.3
2017-Nov-13 23:28N 50°53' E 007°03'  
2017-Nov-10 18:14N 47°39' E 007°32'3 3.1
2017-Nov-10 17:11N 47°37' E 007°35'2 8.3
2017-Nov-10 17:00N 47°35' E 007°35'2 3.9
2017-Nov-10 16:23N 47°34' E 007°38'0 0.4
2017-Nov-10 16:00N 47°34' E 007°38'0 0.5
2017-Nov-10 15:23N 47°33' E 007°38'0 0.0
2017-Nov-10 14:53N 47°33' E 007°38'0 0.0
2017-Nov-10 14:26N 47°33' E 007°38'0 0.0
2017-Nov-10 13:56N 47°33' E 007°38'0 0.0
2017-Nov-10 13:14N 47°33' E 007°38'0 0.0
2017-Nov-10 12:56N 47°33' E 007°38'0 0.0
2017-Nov-10 12:29N 47°33' E 007°38'0 0.0
2017-Nov-10 11:59N 47°33' E 007°38'0 0.0
2017-Nov-10 11:29N 47°33' E 007°38'0 0.0
2017-Nov-10 10:59N 47°33' E 007°38'0 0.0
2017-Nov-10 10:14N 47°33' E 007°38'0 0.0
2017-Nov-10 09:59N 47°33' E 007°38'0 0.0
2017-Nov-10 09:30N 47°33' E 007°38'0 0.0
2017-Nov-10 09:00N 47°33' E 007°38'0 0.0
2017-Nov-10 08:30N 47°33' E 007°38'0 0.0
2017-Nov-10 08:00N 47°33' E 007°38'0 0.0
2017-Nov-10 07:30N 47°33' E 007°38'0 0.0
2017-Nov-10 07:00N 47°33' E 007°38'0 0.0
2017-Nov-10 06:30N 47°33' E 007°38'0 0.0
2017-Nov-10 06:00N 47°33' E 007°38'0 0.0
2017-Nov-10 05:30N 47°33' E 007°38'0 0.0
2017-Nov-10 05:00N 47°33' E 007°38'0 0.0
2017-Nov-10 04:30N 47°33' E 007°38'0 0.0
2017-Nov-10 03:52N 47°33' E 007°38'0 0.0
2017-Nov-10 03:22N 47°33' E 007°38'0 0.0
2017-Nov-10 02:55N 47°33' E 007°38'0 0.0
2017-Nov-10 02:25N 47°33' E 007°38'0 0.0
2017-Nov-10 01:55N 47°33' E 007°38'0 0.0
2017-Nov-10 01:22N 47°33' E 007°38'0 0.0
2017-Nov-10 00:58N 47°33' E 007°38'0 0.0
2017-Nov-10 00:28N 47°33' E 007°38'0 0.0
2017-Nov-09 23:58N 47°33' E 007°38'0 0.0
2017-Nov-09 23:28N 47°33' E 007°38'0 0.0
2017-Nov-09 22:58N 47°33' E 007°38'0 0.0
2017-Nov-09 22:28N 47°33' E 007°38'0 0.0
2017-Nov-09 21:58N 47°33' E 007°38'0 0.0
2017-Nov-09 21:28N 47°33' E 007°38'0 0.0
2017-Nov-09 20:58N 47°33' E 007°38'0 0.0
2017-Nov-09 20:28N 47°33' E 007°38'0 0.0
2017-Nov-09 19:58N 47°33' E 007°38'0 0.0
2017-Nov-09 19:28N 47°33' E 007°38'0 0.0
2017-Nov-09 18:58N 47°33' E 007°38'0 0.0
2017-Nov-09 18:19N 47°33' E 007°38'0 0.0
2017-Nov-09 17:49N 47°33' E 007°38'0 0.1
2017-Nov-09 17:30N 47°33' E 007°38'1 1.0
2017-Nov-09 16:54N 47°34' E 007°38'2 3.2
2017-Nov-09 16:20N 47°34' E 007°35'2 4.6
2017-Nov-09 15:58N 47°36' E 007°36'  
Track history (hours):
 
Tides and Currents Weather Stations Pressure Air Temp Water Temp Dewpoint Dewpoint Depression Visibility Wind Speed Wind Dir Waves Ship Positions

Rp Zug

Last reported at 2017-Nov-19 14:54 UTC. Time now 2017-Nov-19 15:39 UTC.
Position N 50°49' E 006°60'.

Length 110 m; draft 1.5 m.

Type: Tanker. MMSI: 269057351.

Date/timePositionNaut miles runAvg speedWind from/ knotsBaromVisibWave heightAir tempDewpointWater temp
2017-Nov-19 14:54N 50°49' E 006°60'0 0.0
2017-Nov-19 14:30N 50°49' E 006°60'0 0.0
2017-Nov-19 13:45N 50°49' E 006°60'0 0.0
2017-Nov-19 13:24N 50°49' E 006°60'0 0.0
2017-Nov-19 13:00N 50°49' E 006°60'0 0.0
2017-Nov-19 12:30N 50°49' E 006°60'0 0.0
2017-Nov-19 08:02N 50°49' E 006°60'0 0.0
2017-Nov-19 07:51N 50°49' E 006°60'0 0.0
2017-Nov-19 07:15N 50°49' E 006°60'1 0.4
2017-Nov-19 04:41N 50°50' E 006°59'0 1.7
2017-Nov-19 04:25N 50°50' E 006°59'2 4.6
2017-Nov-19 03:59N 50°52' E 007°01'2 4.2
2017-Nov-19 03:29N 50°54' E 007°03'2 4.5
2017-Nov-19 03:00N 50°54' E 006°59'3 5.3
2017-Nov-19 02:30N 50°56' E 006°58'2 5.0
2017-Nov-19 02:00N 50°59' E 006°60'8 4.4
2017-Nov-19 00:06N 51°05' E 006°52'0 4.8
2017-Nov-19 00:00N 51°06' E 006°52'2 3.9
2017-Nov-18 23:30N 51°08' E 006°51'2 4.5
2017-Nov-18 23:00N 51°10' E 006°51'2 4.3
2017-Nov-18 22:30N 51°09' E 006°48'2 4.7
2017-Nov-18 22:00N 51°11' E 006°47'2 4.4
2017-Nov-18 21:30N 51°11' E 006°44'2 4.5
2017-Nov-18 21:00N 51°14' E 006°44'1 2.9
2017-Nov-18 20:30N 51°14' E 006°46'2 4.8
2017-Nov-18 20:00N 51°16' E 006°43'2 3.9
2017-Nov-18 19:29N 51°18' E 006°43'2 4.4
2017-Nov-18 18:57N 51°20' E 006°43'2 5.3
2017-Nov-18 18:30N 51°21' E 006°39'2 3.8
2017-Nov-18 18:00N 51°22' E 006°42'2 4.9
2017-Nov-18 17:30N 51°24' E 006°45'3 5.3
2017-Nov-18 17:00N 51°26' E 006°43'2 4.2
2017-Nov-18 16:30N 51°28' E 006°42'2 3.2
2017-Nov-18 16:00N 51°30' E 006°43'2 4.1
2017-Nov-18 15:30N 51°32' E 006°41'3 5.0
2017-Nov-18 15:00N 51°34' E 006°41'2 4.7
2017-Nov-18 14:29N 51°34' E 006°37'2 4.8
2017-Nov-18 14:00N 51°36' E 006°36'3 5.1
2017-Nov-18 13:30N 51°39' E 006°36'2 4.9
2017-Nov-18 13:00N 51°39' E 006°33'3 5.4
2017-Nov-18 12:30N 51°40' E 006°28'6 4.6
2017-Nov-18 11:11N 51°45' E 006°23'1 6.1
2017-Nov-18 10:57N 51°45' E 006°21'4 5.6
2017-Nov-18 10:12N 51°49' E 006°17'1 6.0
2017-Nov-18 10:00N 51°50' E 006°15'3 5.7
2017-Nov-18 09:30N 51°50' E 006°11'3 5.8
2017-Nov-18 09:00N 51°51' E 006°06'2 4.5
2017-Nov-18 08:30N 51°52' E 006°03'0 0.9
2017-Nov-18 08:00N 51°52' E 006°03'0 0.5
2017-Nov-18 07:30N 51°52' E 006°02'3 5.1
2017-Nov-18 07:00N 51°51' E 005°58'3 5.8
2017-Nov-18 06:30N 51°52' E 005°54'2 4.8
2017-Nov-18 05:59N 51°52' E 005°50'3 6.6
2017-Nov-18 05:30N 51°53' E 005°45'3 6.8
2017-Nov-18 05:00N 51°54' E 005°40'4 6.8
2017-Nov-18 04:29N 51°54' E 005°34'3 6.6
2017-Nov-18 04:00N 51°53' E 005°29'3 6.0
2017-Nov-18 03:29N 51°51' E 005°25'3 6.7
2017-Nov-18 03:00N 51°49' E 005°22'3 5.4
2017-Nov-18 02:30N 51°49' E 005°18'3 6.6
2017-Nov-18 02:00N 51°49' E 005°13'3 6.5
2017-Nov-18 01:30N 51°49' E 005°07'3 6.1
2017-Nov-18 01:00N 51°49' E 005°03'4 7.3
2017-Nov-18 00:30N 51°50' E 004°57'4 7.5
2017-Nov-18 00:00N 51°49' E 004°51'4 7.4
2017-Nov-17 23:30N 51°49' E 004°45'3 6.2
2017-Nov-17 23:00N 51°51' E 004°40'4 7.7
2017-Nov-17 22:30N 51°54' E 004°36'4 7.0
2017-Nov-17 22:00N 51°55' E 004°31'3 6.3
2017-Nov-17 21:31N 51°54' E 004°26'3 4.6
2017-Nov-17 20:57N 51°53' E 004°22'0 0.0
2017-Nov-17 20:24N 51°53' E 004°22'0 0.0
2017-Nov-17 20:00N 51°53' E 004°22'0 0.0
2017-Nov-17 19:30N 51°53' E 004°22'0 0.0
2017-Nov-17 19:00N 51°53' E 004°22'0 0.0
2017-Nov-17 18:30N 51°53' E 004°22'0 0.0
2017-Nov-17 18:00N 51°53' E 004°22'0 0.0
2017-Nov-17 17:27N 51°53' E 004°22'0 0.0
2017-Nov-17 17:00N 51°53' E 004°22'0 0.0
2017-Nov-17 16:24N 51°53' E 004°22'0 0.0
2017-Nov-17 16:00N 51°53' E 004°22'0 0.0
2017-Nov-17 15:30N 51°53' E 004°22'0 0.0
2017-Nov-17 15:00N 51°53' E 004°22'0 0.0
2017-Nov-17 14:27N 51°53' E 004°22'0 0.0
2017-Nov-17 13:54N 51°53' E 004°22'0 0.0
2017-Nov-17 13:30N 51°53' E 004°22'0 0.0
2017-Nov-17 13:01N 51°53' E 004°22'0 0.2
2017-Nov-17 12:31N 51°53' E 004°22'0 0.2
2017-Nov-17 11:56N 51°53' E 004°22'0 0.0
2017-Nov-17 11:23N 51°53' E 004°22'0 0.0
2017-Nov-17 10:56N 51°53' E 004°22'0 0.0
2017-Nov-17 10:23N 51°53' E 004°22'0 0.0
2017-Nov-17 09:59N 51°53' E 004°22'0 0.0
2017-Nov-17 09:23N 51°53' E 004°22'0 0.0
2017-Nov-17 08:50N 51°53' E 004°22'0 0.0
2017-Nov-17 08:29N 51°53' E 004°22'0 0.0
2017-Nov-17 07:59N 51°53' E 004°22'0 0.0
2017-Nov-17 07:29N 51°53' E 004°22'0 0.0
2017-Nov-17 06:53N 51°53' E 004°22'0 0.0
2017-Nov-17 06:29N 51°53' E 004°22'0 0.0
2017-Nov-17 05:59N 51°53' E 004°22'0 0.0
2017-Nov-17 05:29N 51°53' E 004°22'0 0.0
2017-Nov-17 04:59N 51°53' E 004°22'0 0.0
2017-Nov-17 04:20N 51°53' E 004°22'0 0.0
2017-Nov-17 03:59N 51°53' E 004°22'0 0.0
2017-Nov-17 03:29N 51°53' E 004°22'0 0.0
2017-Nov-17 02:59N 51°53' E 004°22'0 0.0
2017-Nov-17 02:29N 51°53' E 004°22'0 0.0
2017-Nov-17 01:59N 51°53' E 004°22'0 0.0
2017-Nov-17 01:29N 51°53' E 004°22'0 0.0
2017-Nov-17 00:59N 51°53' E 004°22'0 0.0
2017-Nov-17 00:29N 51°53' E 004°22'0 0.0
2017-Nov-16 23:59N 51°53' E 004°22'0 0.0
2017-Nov-16 23:29N 51°53' E 004°22'0 0.0
2017-Nov-16 22:59N 51°53' E 004°22'0 0.0
2017-Nov-16 22:29N 51°53' E 004°22'0 0.0
2017-Nov-16 21:53N 51°53' E 004°22'0 0.0
2017-Nov-16 21:29N 51°53' E 004°22'0 0.0
2017-Nov-16 20:59N 51°53' E 004°22'0 0.0
2017-Nov-16 20:29N 51°53' E 004°22'0 0.0
2017-Nov-16 19:56N 51°53' E 004°22'0 0.0
2017-Nov-16 19:29N 51°53' E 004°22'0 0.0
2017-Nov-16 18:59N 51°53' E 004°22'0 0.0
2017-Nov-16 18:26N 51°53' E 004°22'0 0.0
2017-Nov-16 17:59N 51°53' E 004°22'0 0.0
2017-Nov-16 17:29N 51°53' E 004°22'0 0.0
2017-Nov-16 16:59N 51°53' E 004°22'0 0.0
2017-Nov-16 16:29N 51°53' E 004°22'0 0.0
2017-Nov-16 15:59N 51°53' E 004°22'0 0.0
2017-Nov-16 15:23N 51°53' E 004°22'0 0.0
2017-Nov-16 14:59N 51°53' E 004°22'0 0.0
2017-Nov-16 14:29N 51°53' E 004°22'0 0.0
2017-Nov-16 13:59N 51°53' E 004°22'0 0.0
2017-Nov-16 13:29N 51°53' E 004°22'0 0.0
2017-Nov-16 12:59N 51°53' E 004°22'0 0.0
2017-Nov-16 12:29N 51°53' E 004°22'0 0.0
2017-Nov-16 11:59N 51°53' E 004°22'0 0.0
2017-Nov-16 11:29N 51°53' E 004°22'0 0.0
2017-Nov-16 10:59N 51°53' E 004°22'0 0.0
2017-Nov-16 10:29N 51°53' E 004°22'0 0.0
2017-Nov-16 09:59N 51°53' E 004°22'0 0.0
2017-Nov-16 09:23N 51°53' E 004°22'0 0.0
2017-Nov-16 08:59N 51°53' E 004°22'0 0.0
2017-Nov-16 08:29N 51°53' E 004°22'0 0.0
2017-Nov-16 07:59N 51°53' E 004°22'0 0.0
2017-Nov-16 07:29N 51°53' E 004°22'0 0.0
2017-Nov-16 06:59N 51°53' E 004°22'0 0.0
2017-Nov-16 06:29N 51°53' E 004°22'0 0.0
2017-Nov-16 05:59N 51°53' E 004°22'0 0.0
2017-Nov-16 05:29N 51°53' E 004°22'0 0.0
2017-Nov-16 04:59N 51°53' E 004°22'0 0.0
2017-Nov-16 04:29N 51°53' E 004°22'0 0.0
2017-Nov-16 03:59N 51°53' E 004°22'0 0.0
2017-Nov-16 03:29N 51°53' E 004°22'0 0.0
2017-Nov-16 02:59N 51°53' E 004°22'0 0.0
2017-Nov-16 02:29N 51°53' E 004°22'0 0.0
2017-Nov-16 01:56N 51°53' E 004°22'0 0.0
2017-Nov-16 01:29N 51°53' E 004°22'0 0.0
2017-Nov-16 00:59N 51°53' E 004°22'0 0.0
2017-Nov-16 00:29N 51°53' E 004°22'0 0.0
2017-Nov-15 23:59N 51°53' E 004°22'0 0.0
2017-Nov-15 23:26N 51°53' E 004°22'0 0.0
2017-Nov-15 22:59N 51°53' E 004°22'0 0.0
2017-Nov-15 22:29N 51°53' E 004°22'0 0.0
2017-Nov-15 21:59N 51°53' E 004°22'0 0.0
2017-Nov-15 21:29N 51°53' E 004°22'0 0.0
2017-Nov-15 20:59N 51°53' E 004°22'0 0.0
2017-Nov-15 20:29N 51°53' E 004°22'0 0.0
2017-Nov-15 19:59N 51°53' E 004°22'0 0.0
2017-Nov-15 19:29N 51°53' E 004°22'0 0.0
2017-Nov-15 18:56N 51°53' E 004°22'0 0.0
2017-Nov-15 18:29N 51°53' E 004°22'0 0.0
2017-Nov-15 17:59N 51°53' E 004°22'0 0.0
2017-Nov-15 17:29N 51°53' E 004°22'0 0.0
2017-Nov-15 16:59N 51°53' E 004°22'0 0.0
2017-Nov-15 16:29N 51°53' E 004°22'0 0.0
2017-Nov-15 15:59N 51°53' E 004°22'0 0.0
2017-Nov-15 15:23N 51°53' E 004°22'0 0.0
2017-Nov-15 14:59N 51°53' E 004°22'0 0.0
2017-Nov-15 14:26N 51°53' E 004°22'0 0.0
2017-Nov-15 13:59N 51°53' E 004°22'0 0.0
2017-Nov-15 13:29N 51°53' E 004°22'0 0.0
2017-Nov-15 12:59N 51°53' E 004°22'0 0.0
2017-Nov-15 12:29N 51°53' E 004°22'0 0.0
2017-Nov-15 11:56N 51°53' E 004°22'0 0.0
2017-Nov-15 11:29N 51°53' E 004°22'0 0.0
2017-Nov-15 10:59N 51°53' E 004°22'0 0.0
2017-Nov-15 10:29N 51°53' E 004°22'0 0.0
2017-Nov-15 09:47N 51°53' E 004°22'0 0.0
2017-Nov-15 09:29N 51°53' E 004°22'0 0.0
2017-Nov-15 08:59N 51°53' E 004°22'0 0.0
2017-Nov-15 08:29N 51°53' E 004°22'0 0.0
2017-Nov-15 07:59N 51°53' E 004°22'0 0.0
2017-Nov-15 07:30N 51°53' E 004°22'3 6.0
2017-Nov-15 07:00N 51°54' E 004°27'4 8.2
2017-Nov-15 06:30N 51°54' E 004°33'5 9.2
2017-Nov-15 05:59N 51°51' E 004°39'0 0.0
2017-Nov-15 05:29N 51°51' E 004°39'0 0.0
2017-Nov-15 04:59N 51°51' E 004°39'0 0.0
2017-Nov-15 04:29N 51°51' E 004°39'0 0.0
2017-Nov-15 03:59N 51°51' E 004°39'0 0.0
2017-Nov-15 03:29N 51°51' E 004°39'0 0.0
2017-Nov-15 02:59N 51°51' E 004°39'0 0.0
2017-Nov-15 02:26N 51°51' E 004°39'0 0.0
2017-Nov-15 01:59N 51°51' E 004°39'0 0.0
2017-Nov-15 01:29N 51°51' E 004°39'0 0.0
2017-Nov-15 00:56N 51°51' E 004°39'0 0.0
2017-Nov-15 00:29N 51°51' E 004°39'0 0.0
2017-Nov-14 23:59N 51°51' E 004°39'0 0.0
2017-Nov-14 23:29N 51°51' E 004°39'0 0.0
2017-Nov-14 22:59N 51°51' E 004°39'0 0.0
2017-Nov-14 22:29N 51°51' E 004°39'0 0.0
2017-Nov-14 21:59N 51°51' E 004°39'0 0.0
2017-Nov-14 21:29N 51°51' E 004°39'0 0.0
2017-Nov-14 20:59N 51°51' E 004°39'0 0.0
2017-Nov-14 20:29N 51°51' E 004°39'0 0.0
2017-Nov-14 19:59N 51°51' E 004°39'0 0.0
2017-Nov-14 19:29N 51°51' E 004°39'0 0.0
2017-Nov-14 18:59N 51°51' E 004°39'0 0.0
2017-Nov-14 18:29N 51°51' E 004°39'0 0.0
2017-Nov-14 17:59N 51°51' E 004°39'0 0.0
2017-Nov-14 17:29N 51°51' E 004°39'0 0.0
2017-Nov-14 16:59N 51°51' E 004°39'0 0.0
2017-Nov-14 16:30N 51°51' E 004°39'0 0.0
2017-Nov-14 16:00N 51°51' E 004°39'0 0.0
2017-Nov-14 15:30N 51°51' E 004°39'3 5.1
2017-Nov-14 15:00N 51°53' E 004°37'3 5.2
2017-Nov-14 14:30N 51°51' E 004°39'2 3.3
2017-Nov-14 14:00N 51°50' E 004°40'5 9.6
2017-Nov-14 13:31N 51°49' E 004°48'5 9.9
2017-Nov-14 13:01N 51°50' E 004°56'5 9.7
2017-Nov-14 12:31N 51°49' E 005°04'610.2
2017-Nov-14 11:58N 51°49' E 005°13'5 9.9
2017-Nov-14 11:30N 51°48' E 005°20'710.1
2017-Nov-14 10:51N 51°53' E 005°27'611.3
2017-Nov-14 10:17N 51°54' E 005°38'411.2
2017-Nov-14 09:56N 51°53' E 005°44'611.0
2017-Nov-14 09:25N 51°51' E 005°52'3 8.4
2017-Nov-14 09:01N 51°51' E 005°58'4 8.7
2017-Nov-14 08:31N 51°51' E 006°05'611.1
2017-Nov-14 07:58N 51°50' E 006°14'11 9.7
2017-Nov-14 06:49N 51°42' E 006°28'310.2
2017-Nov-14 06:31N 51°40' E 006°31'4 7.5
2017-Nov-14 06:01N 51°37' E 006°35'4 7.7
2017-Nov-14 05:29N 51°35' E 006°40'5 9.7
2017-Nov-14 05:00N 51°30' E 006°43'3 7.1
2017-Nov-14 04:31N 51°27' E 006°43'5 8.9
2017-Nov-14 04:00N 51°22' E 006°42'3 6.5
2017-Nov-14 03:28N 51°19' E 006°44'4 8.8
2017-Nov-14 03:00N 51°15' E 006°45'3 5.8
2017-Nov-14 02:31N 51°12' E 006°44'4 7.5
2017-Nov-14 02:01N 51°09' E 006°47'3 5.2
2017-Nov-14 01:30N 51°08' E 006°51'8 8.5
2017-Nov-14 00:30N 51°01' E 006°58'4 8.0
2017-Nov-14 00:00N 50°57' E 006°58'5 9.3
2017-Nov-13 23:28N 50°53' E 007°03'  
2017-Nov-10 18:14N 47°39' E 007°32'3 3.1
2017-Nov-10 17:11N 47°37' E 007°35'2 8.3
2017-Nov-10 17:00N 47°35' E 007°35'2 3.9
2017-Nov-10 16:23N 47°34' E 007°38'0 0.4
2017-Nov-10 16:00N 47°34' E 007°38'0 0.5
2017-Nov-10 15:23N 47°33' E 007°38'0 0.0
2017-Nov-10 14:53N 47°33' E 007°38'0 0.0
2017-Nov-10 14:26N 47°33' E 007°38'0 0.0
2017-Nov-10 13:56N 47°33' E 007°38'0 0.0
2017-Nov-10 13:14N 47°33' E 007°38'0 0.0
2017-Nov-10 12:56N 47°33' E 007°38'0 0.0
2017-Nov-10 12:29N 47°33' E 007°38'0 0.0
2017-Nov-10 11:59N 47°33' E 007°38'0 0.0
2017-Nov-10 11:29N 47°33' E 007°38'0 0.0
2017-Nov-10 10:59N 47°33' E 007°38'0 0.0
2017-Nov-10 10:14N 47°33' E 007°38'0 0.0
2017-Nov-10 09:59N 47°33' E 007°38'0 0.0
2017-Nov-10 09:30N 47°33' E 007°38'0 0.0
2017-Nov-10 09:00N 47°33' E 007°38'0 0.0
2017-Nov-10 08:30N 47°33' E 007°38'0 0.0
2017-Nov-10 08:00N 47°33' E 007°38'0 0.0
2017-Nov-10 07:30N 47°33' E 007°38'0 0.0
2017-Nov-10 07:00N 47°33' E 007°38'0 0.0
2017-Nov-10 06:30N 47°33' E 007°38'0 0.0
2017-Nov-10 06:00N 47°33' E 007°38'0 0.0
2017-Nov-10 05:30N 47°33' E 007°38'0 0.0
2017-Nov-10 05:00N 47°33' E 007°38'0 0.0
2017-Nov-10 04:30N 47°33' E 007°38'0 0.0
2017-Nov-10 03:52N 47°33' E 007°38'0 0.0
2017-Nov-10 03:22N 47°33' E 007°38'0 0.0
2017-Nov-10 02:55N 47°33' E 007°38'0 0.0
2017-Nov-10 02:25N 47°33' E 007°38'0 0.0
2017-Nov-10 01:55N 47°33' E 007°38'0 0.0
2017-Nov-10 01:22N 47°33' E 007°38'0 0.0
2017-Nov-10 00:58N 47°33' E 007°38'0 0.0
2017-Nov-10 00:28N 47°33' E 007°38'0 0.0
2017-Nov-09 23:58N 47°33' E 007°38'0 0.0
2017-Nov-09 23:28N 47°33' E 007°38'0 0.0
2017-Nov-09 22:58N 47°33' E 007°38'0 0.0
2017-Nov-09 22:28N 47°33' E 007°38'0 0.0
2017-Nov-09 21:58N 47°33' E 007°38'0 0.0
2017-Nov-09 21:28N 47°33' E 007°38'0 0.0
2017-Nov-09 20:58N 47°33' E 007°38'0 0.0
2017-Nov-09 20:28N 47°33' E 007°38'0 0.0
2017-Nov-09 19:58N 47°33' E 007°38'0 0.0
2017-Nov-09 19:28N 47°33' E 007°38'0 0.0
2017-Nov-09 18:58N 47°33' E 007°38'0 0.0
2017-Nov-09 18:19N 47°33' E 007°38'0 0.0
2017-Nov-09 17:49N 47°33' E 007°38'0 0.1
2017-Nov-09 17:30N 47°33' E 007°38'1 1.0
2017-Nov-09 16:54N 47°34' E 007°38'2 3.2
2017-Nov-09 16:20N 47°34' E 007°35'2 4.6
2017-Nov-09 15:58N 47°36' E 007°36'  

Dump ship's entire track history